IST,Max TemperatureF,Mean TemperatureF,Min TemperatureF,Max Dew PointF,MeanDew PointF,Min DewpointF,Max Humidity, Mean Humidity, Min Humidity, Max Sea Level PressureIn, Mean Sea Level PressureIn, Min Sea Level PressureIn, Max VisibilityMiles, Mean VisibilityMiles, Min VisibilityMiles, Max Wind SpeedMPH, Mean Wind SpeedMPH, Max Gust SpeedMPH,PrecipitationIn, CloudCover, Events, WindDirDegrees
2012-3-1,57,49,41,46,43,37,100,80,67,30.30,30.20,30.12,6,6,6,22,10,32,0.00,3,,217
2012-3-2,51,46,41,45,42,39,100,85,67,30.30,30.15,29.95,6,6,2,21,9,,0.00,5,Fog,146
2012-3-3,50,46,39,46,40,37,100,81,66,30.01,29.86,29.77,6,5,2,21,15,26,0.00,4,Rain,215
2012-3-4,44,38,32,36,33,30,100,81,61,30.27,30.12,29.98,6,6,6,23,13,,0.00,2,Rain,276
2012-3-5,48,40,33,39,35,32,100,86,58,30.39,30.35,30.30,6,6,6,17,13,,0.00,4,,278
2012-3-6,51,43,35,48,40,34,94,84,66,30.33,30.12,29.83,6,6,6,24,10,30,0.00,6,Rain,197
2012-3-7,51,45,39,50,38,32,94,80,61,30.21,29.94,29.74,6,6,4,29,21,40,0.00,3,Rain,262
2012-3-8,53,46,39,45,40,34,93,78,67,30.39,30.34,30.21,6,6,6,28,17,31,0.00,4,,235
2012-3-9,55,52,48,52,48,41,94,86,76,30.51,30.40,30.33,6,6,5,23,17,32,0.00,6,Rain,233
2012-3-10,55,52,50,50,49,48,100,89,82,30.69,30.60,30.51,6,6,6,20,16,,0.00,6,,255
2012-3-11,51,48,44,48,46,45,100,92,82,30.69,30.67,30.63,6,6,3,17,11,,0.00,7,,263
2012-3-12,53,50,46,46,45,43,93,86,72,30.60,30.56,30.54,6,6,6,10,5,,0.00,7,,104
2012-3-13,48,40,33,45,41,34,100,88,81,30.54,30.52,30.48,6,6,6,9,7,,0.00,6,,145
2012-3-14,50,40,30,43,38,30,100,91,76,30.48,30.37,30.30,6,5,0,10,4,,0.00,5,Fog,192
2012-3-15,53,48,42,48,43,39,88,81,71,30.30,30.14,30.01,6,6,4,14,8,,0.00,6,,199
2012-3-16,51,48,44,50,46,41,100,91,81,30.01,29.87,29.80,6,5,2,18,13,,0.00,7,Rain,226
2012-3-17,46,42,37,43,40,36,100,92,81,29.89,29.81,29.77,6,6,6,14,7,,0.00,6,Rain,45
2012-3-18,51,43,35,39,36,32,100,80,50,30.36,30.13,29.89,6,6,6,15,10,,0.00,3,Rain,304
2012-3-19,53,45,37,43,39,36,93,79,66,30.42,30.40,30.36,6,6,6,22,12,29,0.00,4,,234
2012-3-20,53,50,46,45,42,41,82,73,62,30.51,30.46,30.42,6,6,6,20,15,,0.00,5,,228
2012-3-21,51,46,37,43,40,36,93,74,62,30.51,30.49,30.45,6,6,6,15,8,,0.00,6,,177
2012-3-22,51,42,32,46,42,32,100,89,76,30.45,30.34,30.27,6,5,3,14,8,,0.00,4,,80
2012-3-23,51,48,46,46,45,41,100,86,67,30.27,30.24,30.21,6,5,3,16,10,,0.00,5,Rain,130
2012-3-24,59,50,41,45,44,41,100,76,55,30.36,30.29,30.27,6,5,3,16,10,,0.00,3,,124
2012-3-25,64,52,39,46,41,36,93,64,45,30.54,30.46,30.36,6,6,4,15,8,,0.00,2,,132
2012-3-26,59,47,35,46,38,32,100,76,36,30.60,30.56,30.54,6,3,0,14,5,,0.00,3,Fog,79
2012-3-27,64,50,35,48,39,34,100,74,32,30.63,30.59,30.57,6,4,2,12,4,,0.00,1,Fog,89
2012-3-28,66,49,32,45,38,32,100,73,30,30.57,30.54,30.51,,,,10,4,,0.00,,,299
2012-3-29,62,50,37,45,41,36,100,74,45,30.51,30.48,30.42,6,5,5,16,8,,0.00,1,,298
2012-3-30,51,46,42,46,43,41,100,81,71,30.45,30.35,30.24,6,6,5,16,11,25,0.00,6,,315
2012-3-31,53,45,35,45,40,34,93,76,58,30.24,30.21,30.18,6,6,6,16,11,,0.00,5,,2